Terminal Aerodrome Forecast
Issued by NWS

Home | Current Version | Previous Version | Text Only | Print | Product List | Glossary On
Versions: 1 2 3 4 5 6 7 8 9 10 11 12 13 14 15 16 17 18 19 20 21 22
934
FTUS45 KGJT 221740
TAFMTJ
TAF
KMTJ 221740Z 2218/2318 22009KT P6SM BKN200
     FM230100 17006KT P6SM BKN150
     FM230800 15006KT P6SM VCSH BKN140
     FM231200 16006KT P6SM BKN080
     FM231600 18005KT P6SM BKN025
     FM231700 21006KT P6SM BKN045=

USA.gov is the U.S. government's official web portal to all federal, state and local government web resources and services.